sensor_id;sensor_type;location;lat;lon;timestamp;pressure;altitude;pressure_sealevel;temperature;humidity
33280;BME280;20403;43.114;12.434;2023-03-05T00:01:14;98893.72;;;3.64;100.00
33280;BME280;20403;43.114;12.434;2023-03-05T00:03:40;98903.66;;;3.67;100.00
33280;BME280;20403;43.114;12.434;2023-03-05T00:06:06;98891.50;;;3.61;100.00
33280;BME280;20403;43.114;12.434;2023-03-05T00:08:32;98895.75;;;3.68;100.00
33280;BME280;20403;43.114;12.434;2023-03-05T00:10:58;98897.22;;;3.56;100.00
33280;BME280;20403;43.114;12.434;2023-03-05T00:13:24;98900.25;;;3.45;100.00
33280;BME280;20403;43.114;12.434;2023-03-05T00:15:50;98891.69;;;3.44;100.00
33280;BME280;20403;43.114;12.434;2023-03-05T00:18:15;98890.09;;;3.43;100.00
33280;BME280;20403;43.114;12.434;2023-03-05T00:20:41;98890.28;;;3.42;100.00
33280;BME280;20403;43.114;12.434;2023-03-05T00:23:07;98895.44;;;3.42;100.00
33280;BME280;20403;43.114;12.434;2023-03-05T00:25:35;98892.53;;;3.30;100.00
33280;BME280;20403;43.114;12.434;2023-03-05T00:28:00;98887.53;;;3.43;100.00
33280;BME280;20403;43.114;12.434;2023-03-05T00:30:26;98894.03;;;3.39;100.00
33280;BME280;20403;43.114;12.434;2023-03-05T00:32:51;98886.75;;;3.28;100.00
33280;BME280;20403;43.114;12.434;2023-03-05T00:35:16;98889.44;;;3.20;100.00
33280;BME280;20403;43.114;12.434;2023-03-05T00:37:42;98893.75;;;3.34;100.00
33280;BME280;20403;43.114;12.434;2023-03-05T00:40:08;98888.34;;;3.29;100.00
33280;BME280;20403;43.114;12.434;2023-03-05T00:42:34;98890.41;;;3.19;100.00
33280;BME280;20403;43.114;12.434;2023-03-05T00:45:03;98895.41;;;3.05;100.00
33280;BME280;20403;43.114;12.434;2023-03-05T00:47:29;98890.56;;;3.02;100.00
33280;BME280;20403;43.114;12.434;2023-03-05T00:49:54;98892.53;;;3.15;100.00
33280;BME280;20403;43.114;12.434;2023-03-05T00:52:20;98882.59;;;3.12;100.00
33280;BME280;20403;43.114;12.434;2023-03-05T00:54:45;98884.28;;;3.05;100.00
33280;BME280;20403;43.114;12.434;2023-03-05T00:57:10;98885.88;;;2.91;100.00
33280;BME280;20403;43.114;12.434;2023-03-05T00:59:36;98887.94;;;3.10;100.00
33280;BME280;20403;43.114;12.434;2023-03-05T01:02:01;98888.38;;;2.99;100.00
33280;BME280;20403;43.114;12.434;2023-03-05T01:04:27;98881.44;;;3.14;100.00
33280;BME280;20403;43.114;12.434;2023-03-05T01:06:52;98887.56;;;3.13;100.00
33280;BME280;20403;43.114;12.434;2023-03-05T01:09:18;98884.91;;;3.07;100.00
33280;BME280;20403;43.114;12.434;2023-03-05T01:11:43;98885.97;;;3.12;100.00
33280;BME280;20403;43.114;12.434;2023-03-05T01:14:09;98876.19;;;2.93;100.00
33280;BME280;20403;43.114;12.434;2023-03-05T01:16:34;98876.91;;;2.87;100.00
33280;BME280;20403;43.114;12.434;2023-03-05T01:19:00;98882.84;;;3.02;100.00
33280;BME280;20403;43.114;12.434;2023-03-05T01:21:25;98876.13;;;3.01;100.00
33280;BME280;20403;43.114;12.434;2023-03-05T01:23:50;98880.56;;;2.92;100.00
33280;BME280;20403;43.114;12.434;2023-03-05T01:26:16;98879.06;;;2.98;100.00
33280;BME280;20403;43.114;12.434;2023-03-05T01:28:41;98875.94;;;2.88;100.00
33280;BME280;20403;43.114;12.434;2023-03-05T01:31:10;98878.84;;;3.00;100.00
33280;BME280;20403;43.114;12.434;2023-03-05T01:33:36;98872.19;;;2.90;100.00
33280;BME280;20403;43.114;12.434;2023-03-05T01:36:05;98871.88;;;2.93;100.00
33280;BME280;20403;43.114;12.434;2023-03-05T01:38:31;98877.25;;;2.69;100.00
33280;BME280;20403;43.114;12.434;2023-03-05T01:40:56;98876.91;;;2.87;100.00
33280;BME280;20403;43.114;12.434;2023-03-05T01:43:27;98873.53;;;2.86;100.00
33280;BME280;20403;43.114;12.434;2023-03-05T01:48:38;98873.81;;;2.91;100.00
33280;BME280;20403;43.114;12.434;2023-03-05T01:51:05;98873.44;;;2.94;100.00
33280;BME280;20403;43.114;12.434;2023-03-05T01:53:31;98868.75;;;2.83;100.00
33280;BME280;20403;43.114;12.434;2023-03-05T01:55:57;98863.59;;;2.68;100.00
33280;BME280;20403;43.114;12.434;2023-03-05T01:58:22;98858.53;;;2.75;100.00
33280;BME280;20403;43.114;12.434;2023-03-05T02:00:49;98863.91;;;2.65;100.00
33280;BME280;20403;43.114;12.434;2023-03-05T02:03:16;98859.13;;;2.62;100.00
33280;BME280;20403;43.114;12.434;2023-03-05T02:05:43;98858.06;;;2.57;100.00
33280;BME280;20403;43.114;12.434;2023-03-05T02:08:17;98855.50;;;2.71;100.00
33280;BME280;20403;43.114;12.434;2023-03-05T02:10:44;98853.91;;;2.70;100.00
33280;BME280;20403;43.114;12.434;2023-03-05T02:13:13;98855.56;;;2.63;100.00
33280;BME280;20403;43.114;12.434;2023-03-05T02:15:39;98857.19;;;2.64;100.00
33280;BME280;20403;43.114;12.434;2023-03-05T02:18:06;98859.56;;;2.51;100.00
33280;BME280;20403;43.114;12.434;2023-03-05T02:23:25;98855.31;;;2.58;100.00
33280;BME280;20403;43.114;12.434;2023-03-05T02:25:52;98850.06;;;2.51;100.00
33280;BME280;20403;43.114;12.434;2023-03-05T02:28:44;98849.00;;;2.46;100.00
33280;BME280;20403;43.114;12.434;2023-03-05T02:31:17;98855.72;;;2.32;100.00
33280;BME280;20403;43.114;12.434;2023-03-05T02:33:44;98858.13;;;2.48;100.00
33280;BME280;20403;43.114;12.434;2023-03-05T02:36:10;98851.84;;;2.51;100.00
33280;BME280;20403;43.114;12.434;2023-03-05T02:38:36;98849.63;;;2.48;100.00
33280;BME280;20403;43.114;12.434;2023-03-05T02:41:02;98853.25;;;2.39;100.00
33280;BME280;20403;43.114;12.434;2023-03-05T02:43:28;98847.38;;;2.45;100.00
33280;BME280;20403;43.114;12.434;2023-03-05T02:45:53;98841.13;;;2.47;100.00
33280;BME280;20403;43.114;12.434;2023-03-05T02:48:18;98847.69;;;2.50;100.00
33280;BME280;20403;43.114;12.434;2023-03-05T02:50:45;98847.47;;;2.37;100.00
33280;BME280;20403;43.114;12.434;2023-03-05T02:53:11;98845.31;;;2.25;100.00
33280;BME280;20403;43.114;12.434;2023-03-05T02:55:36;98851.47;;;2.39;100.00
33280;BME280;20403;43.114;12.434;2023-03-05T02:58:02;98850.69;;;2.39;100.00
33280;BME280;20403;43.114;12.434;2023-03-05T03:00:27;98844.97;;;2.28;100.00
33280;BME280;20403;43.114;12.434;2023-03-05T03:02:53;98849.03;;;2.23;100.00
33280;BME280;20403;43.114;12.434;2023-03-05T03:05:18;98848.66;;;2.11;100.00
33280;BME280;20403;43.114;12.434;2023-03-05T03:07:44;98850.59;;;2.09;100.00
33280;BME280;20403;43.114;12.434;2023-03-05T03:10:10;98858.31;;;2.09;100.00
33280;BME280;20403;43.114;12.434;2023-03-05T03:12:37;98857.63;;;2.15;100.00
33280;BME280;20403;43.114;12.434;2023-03-05T03:15:03;98854.69;;;2.03;100.00
33280;BME280;20403;43.114;12.434;2023-03-05T03:17:29;98858.38;;;2.01;100.00
33280;BME280;20403;43.114;12.434;2023-03-05T03:19:54;98847.13;;;2.02;100.00
33280;BME280;20403;43.114;12.434;2023-03-05T03:22:19;98849.75;;;1.94;100.00
33280;BME280;20403;43.114;12.434;2023-03-05T03:24:45;98855.41;;;1.89;100.00
33280;BME280;20403;43.114;12.434;2023-03-05T03:27:10;98852.63;;;1.76;100.00
33280;BME280;20403;43.114;12.434;2023-03-05T03:29:36;98858.38;;;2.01;100.00
33280;BME280;20403;43.114;12.434;2023-03-05T03:32:02;98855.34;;;1.97;100.00
33280;BME280;20403;43.114;12.434;2023-03-05T03:34:28;98849.97;;;1.84;100.00
33280;BME280;20403;43.114;12.434;2023-03-05T03:36:54;98849.19;;;1.83;100.00
33280;BME280;20403;43.114;12.434;2023-03-05T03:39:20;98848.53;;;2.04;100.00
33280;BME280;20403;43.114;12.434;2023-03-05T03:41:49;98847.22;;;2.08;100.00
33280;BME280;20403;43.114;12.434;2023-03-05T03:44:15;98853.41;;;1.99;100.00
33280;BME280;20403;43.114;12.434;2023-03-05T03:46:42;98851.63;;;2.00;100.00
33280;BME280;20403;43.114;12.434;2023-03-05T03:49:14;98845.59;;;1.93;100.00
33280;BME280;20403;43.114;12.434;2023-03-05T03:51:40;98851.78;;;1.98;100.00
33280;BME280;20403;43.114;12.434;2023-03-05T03:54:05;98853.19;;;1.86;100.00
33280;BME280;20403;43.114;12.434;2023-03-05T03:56:31;98853.66;;;1.89;100.00
33280;BME280;20403;43.114;12.434;2023-03-05T03:58:56;98857.53;;;1.85;100.00
33280;BME280;20403;43.114;12.434;2023-03-05T04:01:22;98851.13;;;1.81;100.00
33280;BME280;20403;43.114;12.434;2023-03-05T04:03:47;98850.66;;;1.78;100.00
33280;BME280;20403;43.114;12.434;2023-03-05T04:06:13;98857.69;;;1.84;100.00
33280;BME280;20403;43.114;12.434;2023-03-05T04:08:38;98861.53;;;1.88;100.00
33280;BME280;20403;43.114;12.434;2023-03-05T04:11:04;98861.25;;;1.83;100.00
33280;BME280;20403;43.114;12.434;2023-03-05T04:13:29;98865.16;;;1.71;100.00
33280;BME280;20403;43.114;12.434;2023-03-05T04:15:55;98869.47;;;1.78;100.00
33280;BME280;20403;43.114;12.434;2023-03-05T04:18:21;98865.53;;;1.91;100.00
33280;BME280;20403;43.114;12.434;2023-03-05T04:20:46;98860.78;;;1.79;100.00
33280;BME280;20403;43.114;12.434;2023-03-05T04:23:12;98860.91;;;1.55;100.00
33280;BME280;20403;43.114;12.434;2023-03-05T04:25:38;98858.53;;;1.76;100.00
33280;BME280;20403;43.114;12.434;2023-03-05T04:28:04;98855.78;;;1.78;100.00
33280;BME280;20403;43.114;12.434;2023-03-05T04:30:29;98853.91;;;1.72;100.00
33280;BME280;20403;43.114;12.434;2023-03-05T04:32:55;98856.13;;;1.75;100.00
33280;BME280;20403;43.114;12.434;2023-03-05T04:35:21;98849.22;;;1.75;100.00
33280;BME280;20403;43.114;12.434;2023-03-05T04:37:46;98849.84;;;1.54;100.00
33280;BME280;20403;43.114;12.434;2023-03-05T04:40:12;98862.47;;;1.33;100.00
33280;BME280;20403;43.114;12.434;2023-03-05T04:42:37;98859.13;;;1.24;100.00
33280;BME280;20403;43.114;12.434;2023-03-05T04:45:03;98857.47;;;1.39;100.00
33280;BME280;20403;43.114;12.434;2023-03-05T04:47:29;98849.84;;;1.54;100.00
33280;BME280;20403;43.114;12.434;2023-03-05T04:49:54;98851.91;;;1.59;100.00
33280;BME280;20403;43.114;12.434;2023-03-05T04:52:20;98847.22;;;1.62;100.00
33280;BME280;20403;43.114;12.434;2023-03-05T04:54:45;98862.28;;;1.65;100.00
33280;BME280;20403;43.114;12.434;2023-03-05T04:57:11;98857.63;;;1.69;100.00
33280;BME280;20403;43.114;12.434;2023-03-05T04:59:37;98863.88;;;1.43;100.00
33280;BME280;20403;43.114;12.434;2023-03-05T05:02:03;98863.69;;;1.45;100.00
33280;BME280;20403;43.114;12.434;2023-03-05T05:04:29;98858.91;;;1.42;100.00
33280;BME280;20403;43.114;12.434;2023-03-05T05:06:55;98855.19;;;1.44;100.00
33280;BME280;20403;43.114;12.434;2023-03-05T05:09:23;98861.13;;;1.45;100.00
33280;BME280;20403;43.114;12.434;2023-03-05T05:11:49;98865.00;;;1.41;100.00
33280;BME280;20403;43.114;12.434;2023-03-05T05:14:14;98855.19;;;1.44;100.00
33280;BME280;20403;43.114;12.434;2023-03-05T05:16:40;98869.88;;;1.28;100.00
33280;BME280;20403;43.114;12.434;2023-03-05T05:19:06;98871.19;;;1.15;100.00
33280;BME280;20403;43.114;12.434;2023-03-05T05:21:33;98879.28;;;1.04;100.00
33280;BME280;20403;43.114;12.434;2023-03-05T05:23:58;98874.16;;;1.04;100.00
33280;BME280;20403;43.114;12.434;2023-03-05T05:26:23;98873.78;;;1.15;100.00
33280;BME280;20403;43.114;12.434;2023-03-05T05:28:49;98873.47;;;1.18;100.00
33280;BME280;20403;43.114;12.434;2023-03-05T05:31:16;98867.47;;;1.26;100.00
33280;BME280;20403;43.114;12.434;2023-03-05T05:33:42;98873.09;;;1.30;100.00
33280;BME280;20403;43.114;12.434;2023-03-05T05:36:10;98876.16;;;1.25;100.00
33280;BME280;20403;43.114;12.434;2023-03-05T05:38:36;98873.88;;;1.30;100.00
33280;BME280;20403;43.114;12.434;2023-03-05T05:41:09;98877.41;;;1.29;100.00
33280;BME280;20403;43.114;12.434;2023-03-05T05:43:35;98869.69;;;1.29;100.00
33280;BME280;20403;43.114;12.434;2023-03-05T05:46:03;98873.91;;;1.22;100.00
33280;BME280;20403;43.114;12.434;2023-03-05T05:48:30;98876.47;;;1.22;100.00
33280;BME280;20403;43.114;12.434;2023-03-05T05:50:56;98872.53;;;1.11;100.00
33280;BME280;20403;43.114;12.434;2023-03-05T05:53:22;98873.91;;;1.22;100.00
33280;BME280;20403;43.114;12.434;2023-03-05T05:55:48;98870.19;;;1.24;100.00
33280;BME280;20403;43.114;12.434;2023-03-05T05:58:13;98871.81;;;1.25;100.00
33280;BME280;20403;43.114;12.434;2023-03-05T06:00:39;98869.63;;;1.14;100.00
33280;BME280;20403;43.114;12.434;2023-03-05T06:03:04;98876.19;;;1.09;100.00
33280;BME280;20403;43.114;12.434;2023-03-05T06:05:29;98878.75;;;1.17;100.00
33280;BME280;20403;43.114;12.434;2023-03-05T06:07:55;98882.44;;;1.14;100.00
33280;BME280;20403;43.114;12.434;2023-03-05T06:10:20;98879.84;;;1.22;100.00
33280;BME280;20403;43.114;12.434;2023-03-05T06:12:46;98886.53;;;1.40;100.00
33280;BME280;20403;43.114;12.434;2023-03-05T06:15:11;98885.38;;;1.42;100.00
33280;BME280;20403;43.114;12.434;2023-03-05T06:17:36;98886.16;;;1.51;100.00
33280;BME280;20403;43.114;12.434;2023-03-05T06:20:03;98888.06;;;1.57;100.00
33280;BME280;20403;43.114;12.434;2023-03-05T06:22:29;98891.25;;;1.82;100.00
33280;BME280;20403;43.114;12.434;2023-03-05T06:24:54;98885.97;;;1.84;100.00
33280;BME280;20403;43.114;12.434;2023-03-05T06:27:20;98889.13;;;1.94;100.00
33280;BME280;20403;43.114;12.434;2023-03-05T06:29:45;98894.16;;;2.10;100.00
33280;BME280;20403;43.114;12.434;2023-03-05T06:32:10;98889.09;;;2.17;100.00
33280;BME280;20403;43.114;12.434;2023-03-05T06:34:36;98887.47;;;2.24;100.00
33280;BME280;20403;43.114;12.434;2023-03-05T06:37:01;98888.00;;;2.35;100.00
33280;BME280;20403;43.114;12.434;2023-03-05T06:39:27;98886.69;;;2.39;100.00
33280;BME280;20403;43.114;12.434;2023-03-05T06:41:54;98881.63;;;2.98;100.00
33280;BME280;20403;43.114;12.434;2023-03-05T06:44:19;98884.19;;;3.64;100.00
33280;BME280;20403;43.114;12.434;2023-03-05T06:46:45;98886.84;;;3.92;100.00
33280;BME280;20403;43.114;12.434;2023-03-05T06:49:10;98883.06;;;4.10;100.00
33280;BME280;20403;43.114;12.434;2023-03-05T06:51:38;98884.97;;;3.79;100.00
33280;BME280;20403;43.114;12.434;2023-03-05T06:54:13;98886.59;;;4.02;100.00
33280;BME280;20403;43.114;12.434;2023-03-05T06:56:44;98885.28;;;4.13;100.00
33280;BME280;20403;43.114;12.434;2023-03-05T06:59:11;98888.75;;;4.76;100.00
33280;BME280;20403;43.114;12.434;2023-03-05T07:01:37;98891.00;;;5.76;100.00
33280;BME280;20403;43.114;12.434;2023-03-05T07:04:03;98881.72;;;6.48;100.00
33280;BME280;20403;43.114;12.434;2023-03-05T07:06:33;98879.38;;;7.18;100.00
33280;BME280;20403;43.114;12.434;2023-03-05T07:08:59;98873.06;;;7.52;100.00
33280;BME280;20403;43.114;12.434;2023-03-05T07:11:28;98873.28;;;7.89;100.00
33280;BME280;20403;43.114;12.434;2023-03-05T07:13:53;98877.06;;;7.93;100.00
33280;BME280;20403;43.114;12.434;2023-03-05T07:16:31;98886.25;;;7.89;100.00
33280;BME280;20403;43.114;12.434;2023-03-05T07:18:58;98877.25;;;7.92;100.00
33280;BME280;20403;43.114;12.434;2023-03-05T07:21:26;98875.03;;;7.95;100.00
33280;BME280;20403;43.114;12.434;2023-03-05T07:23:53;98883.97;;;7.74;100.00
33280;BME280;20403;43.114;12.434;2023-03-05T07:26:19;98890.44;;;7.52;100.00
33280;BME280;20403;43.114;12.434;2023-03-05T07:28:45;98889.91;;;7.30;100.00
33280;BME280;20403;43.114;12.434;2023-03-05T07:31:16;98886.38;;;7.18;100.00
33280;BME280;20403;43.114;12.434;2023-03-05T07:33:44;98885.78;;;7.22;100.00
33280;BME280;20403;43.114;12.434;2023-03-05T07:36:10;98889.31;;;7.34;100.00
33280;BME280;20403;43.114;12.434;2023-03-05T07:38:36;98888.97;;;7.18;100.00
33280;BME280;20403;43.114;12.434;2023-03-05T07:41:04;98895.63;;;7.00;100.00
33280;BME280;20403;43.114;12.434;2023-03-05T07:43:29;98897.19;;;7.01;100.00
33280;BME280;20403;43.114;12.434;2023-03-05T07:45:55;98892.38;;;7.11;100.00
33280;BME280;20403;43.114;12.434;2023-03-05T07:48:20;98890.97;;;7.15;100.00
33280;BME280;20403;43.114;12.434;2023-03-05T07:50:46;98891.19;;;7.14;100.00
33280;BME280;20403;43.114;12.434;2023-03-05T07:53:12;98891.13;;;7.27;100.00
33280;BME280;20403;43.114;12.434;2023-03-05T07:55:45;98890.41;;;7.58;100.00
33280;BME280;20403;43.114;12.434;2023-03-05T07:58:12;98896.09;;;7.74;100.00
33280;BME280;20403;43.114;12.434;2023-03-05T08:00:39;98896.66;;;7.83;100.00
33280;BME280;20403;43.114;12.434;2023-03-05T08:03:05;98893.13;;;7.77;100.00
33280;BME280;20403;43.114;12.434;2023-03-05T08:05:31;98883.78;;;8.01;100.00
33280;BME280;20403;43.114;12.434;2023-03-05T08:07:56;98882.88;;;8.20;100.00
33280;BME280;20403;43.114;12.434;2023-03-05T08:10:21;98888.38;;;8.31;100.00
33280;BME280;20403;43.114;12.434;2023-03-05T08:12:47;98892.91;;;8.42;100.00
33280;BME280;20403;43.114;12.434;2023-03-05T08:15:12;98894.72;;;8.67;100.00
33280;BME280;20403;43.114;12.434;2023-03-05T08:17:38;98892.19;;;8.78;100.00
33280;BME280;20403;43.114;12.434;2023-03-05T08:20:04;98897.91;;;9.05;100.00
33280;BME280;20403;43.114;12.434;2023-03-05T08:22:34;98894.97;;;9.20;100.00
33280;BME280;20403;43.114;12.434;2023-03-05T08:25:01;98902.38;;;8.98;100.00
33280;BME280;20403;43.114;12.434;2023-03-05T08:27:27;98896.06;;;9.13;100.00
33280;BME280;20403;43.114;12.434;2023-03-05T08:29:53;98886.34;;;9.38;100.00
33280;BME280;20403;43.114;12.434;2023-03-05T08:32:18;98884.03;;;9.30;100.00
33280;BME280;20403;43.114;12.434;2023-03-05T08:34:43;98880.13;;;9.70;100.00
33280;BME280;20403;43.114;12.434;2023-03-05T08:37:09;98877.41;;;10.06;100.00
33280;BME280;20403;43.114;12.434;2023-03-05T08:39:35;98878.59;;;9.80;100.00
33280;BME280;20403;43.114;12.434;2023-03-05T08:42:01;98878.97;;;9.35;100.00
33280;BME280;20403;43.114;12.434;2023-03-05T08:44:27;98883.47;;;9.88;100.00
33280;BME280;20403;43.114;12.434;2023-03-05T08:46:52;98874.34;;;10.09;100.00
33280;BME280;20403;43.114;12.434;2023-03-05T08:49:18;98879.72;;;10.26;98.85
33280;BME280;20403;43.114;12.434;2023-03-05T08:51:43;98876.81;;;10.82;100.00
33280;BME280;20403;43.114;12.434;2023-03-05T08:54:09;98876.00;;;11.45;91.80
33280;BME280;20403;43.114;12.434;2023-03-05T08:56:34;98868.31;;;11.96;82.24
33280;BME280;20403;43.114;12.434;2023-03-05T08:59:00;98866.50;;;12.30;82.76
33280;BME280;20403;43.114;12.434;2023-03-05T09:01:25;98860.25;;;12.14;79.19
33280;BME280;20403;43.114;12.434;2023-03-05T09:03:52;98865.88;;;12.06;76.61
33280;BME280;20403;43.114;12.434;2023-03-05T09:06:17;98866.44;;;12.25;84.44
33280;BME280;20403;43.114;12.434;2023-03-05T09:08:43;98862.88;;;12.70;85.58
33280;BME280;20403;43.114;12.434;2023-03-05T09:11:11;98863.25;;;12.57;73.38
33280;BME280;20403;43.114;12.434;2023-03-05T09:13:37;98858.09;;;12.62;74.86
33280;BME280;20403;43.114;12.434;2023-03-05T09:16:04;98856.03;;;12.64;76.69
33280;BME280;20403;43.114;12.434;2023-03-05T09:18:30;98854.66;;;12.61;82.23
33280;BME280;20403;43.114;12.434;2023-03-05T09:20:56;98848.34;;;12.79;77.90
33280;BME280;20403;43.114;12.434;2023-03-05T09:23:22;98843.81;;;12.92;77.07
33280;BME280;20403;43.114;12.434;2023-03-05T09:25:48;98842.09;;;13.24;74.73
33280;BME280;20403;43.114;12.434;2023-03-05T09:28:15;98845.72;;;13.40;77.35
33280;BME280;20403;43.114;12.434;2023-03-05T09:30:41;98834.41;;;13.40;73.71
33280;BME280;20403;43.114;12.434;2023-03-05T09:33:06;98833.84;;;13.60;74.37
33280;BME280;20403;43.114;12.434;2023-03-05T09:35:35;98834.53;;;14.10;70.53
33280;BME280;20403;43.114;12.434;2023-03-05T09:38:02;98829.22;;;13.99;68.61
33280;BME280;20403;43.114;12.434;2023-03-05T09:40:31;98827.56;;;13.93;65.13
33280;BME280;20403;43.114;12.434;2023-03-05T09:46:12;98822.94;;;13.68;67.59
33280;BME280;20403;43.114;12.434;2023-03-05T09:48:47;98817.75;;;14.11;66.00
33280;BME280;20403;43.114;12.434;2023-03-05T09:51:35;98820.13;;;14.49;63.47
33280;BME280;20403;43.114;12.434;2023-03-05T09:54:09;98818.78;;;14.42;61.61
33280;BME280;20403;43.114;12.434;2023-03-05T09:57:02;98820.31;;;14.38;66.16
33280;BME280;20403;43.114;12.434;2023-03-05T10:00:35;98818.88;;;14.62;62.48
33280;BME280;20403;43.114;12.434;2023-03-05T10:02:36;98820.28;;;14.75;62.70
33280;BME280;20403;43.114;12.434;2023-03-05T10:05:25;98814.78;;;14.77;60.77
33280;BME280;20403;43.114;12.434;2023-03-05T10:07:55;98820.66;;;14.52;62.18
33280;BME280;20403;43.114;12.434;2023-03-05T10:10:27;98801.69;;;14.02;61.59
33280;BME280;20403;43.114;12.434;2023-03-05T10:13:04;98807.75;;;14.45;65.08
33280;BME280;20403;43.114;12.434;2023-03-05T10:15:43;98804.28;;;14.77;64.12
33280;BME280;20403;43.114;12.434;2023-03-05T10:18:34;98800.88;;;14.81;60.27
33280;BME280;20403;43.114;12.434;2023-03-05T10:21:16;98802.66;;;15.44;61.68
33280;BME280;20403;43.114;12.434;2023-03-05T10:29:15;98791.84;;;16.32;59.23
33280;BME280;20403;43.114;12.434;2023-03-05T10:34:54;98791.72;;;16.78;57.02
33280;BME280;20403;43.114;12.434;2023-03-05T10:45:50;98785.31;;;16.14;56.89
33280;BME280;20403;43.114;12.434;2023-03-05T10:53:43;98775.22;;;16.47;56.96
33280;BME280;20403;43.114;12.434;2023-03-05T10:56:12;98765.16;;;16.70;55.09
33280;BME280;20403;43.114;12.434;2023-03-05T10:58:37;98761.28;;;16.57;53.97
33280;BME280;20403;43.114;12.434;2023-03-05T11:06:34;98757.78;;;16.72;52.88
33280;BME280;20403;43.114;12.434;2023-03-05T11:09:27;98751.38;;;16.98;52.49
33280;BME280;20403;43.114;12.434;2023-03-05T11:14:24;98745.84;;;16.95;52.88
33280;BME280;20403;43.114;12.434;2023-03-05T11:16:55;98740.53;;;17.00;49.43
33280;BME280;20403;43.114;12.434;2023-03-05T11:19:29;98739.84;;;16.84;48.91
33280;BME280;20403;43.114;12.434;2023-03-05T11:24:38;98737.19;;;16.89;52.36
33280;BME280;20403;43.114;12.434;2023-03-05T11:29:52;98728.94;;;16.41;50.67
33280;BME280;20403;43.114;12.434;2023-03-05T11:32:21;98732.75;;;16.79;51.03
33280;BME280;20403;43.114;12.434;2023-03-05T11:34:47;98721.75;;;16.62;47.28
33280;BME280;20403;43.114;12.434;2023-03-05T11:37:38;98724.25;;;16.93;46.37
33280;BME280;20403;43.114;12.434;2023-03-05T11:40:15;98708.69;;;17.36;48.89
33280;BME280;20403;43.114;12.434;2023-03-05T11:42:44;98713.31;;;17.54;47.12
33280;BME280;20403;43.114;12.434;2023-03-05T11:45:17;98709.78;;;17.30;46.85
33280;BME280;20403;43.114;12.434;2023-03-05T11:47:47;98701.81;;;17.69;45.93
33280;BME280;20403;43.114;12.434;2023-03-05T11:52:56;98697.25;;;17.51;49.26
33280;BME280;20403;43.114;12.434;2023-03-05T11:55:43;98695.16;;;17.48;47.63
33280;BME280;20403;43.114;12.434;2023-03-05T12:00:54;98683.94;;;17.66;45.29
33280;BME280;20403;43.114;12.434;2023-03-05T12:03:23;98684.25;;;17.25;44.57
33280;BME280;20403;43.114;12.434;2023-03-05T12:06:04;98677.53;;;17.09;45.32
33280;BME280;20403;43.114;12.434;2023-03-05T12:08:34;98678.41;;;17.33;43.76
33280;BME280;20403;43.114;12.434;2023-03-05T12:11:22;98667.22;;;17.47;42.60
33280;BME280;20403;43.114;12.434;2023-03-05T12:16:35;98654.88;;;17.71;41.83
33280;BME280;20403;43.114;12.434;2023-03-05T12:21:35;98653.88;;;18.15;41.63
33280;BME280;20403;43.114;12.434;2023-03-05T12:24:49;98647.53;;;17.68;38.55
33280;BME280;20403;43.114;12.434;2023-03-05T12:29:44;98640.97;;;18.14;36.64
33280;BME280;20403;43.114;12.434;2023-03-05T12:34:57;98638.78;;;18.21;35.51
33280;BME280;20403;43.114;12.434;2023-03-05T12:42:51;98626.59;;;18.25;33.37
33280;BME280;20403;43.114;12.434;2023-03-05T12:53:10;98620.66;;;18.14;32.29
33280;BME280;20403;43.114;12.434;2023-03-05T12:58:33;98613.34;;;18.49;33.55
33280;BME280;20403;43.114;12.434;2023-03-05T13:01:35;98605.84;;;18.37;33.32
33280;BME280;20403;43.114;12.434;2023-03-05T13:04:11;98602.44;;;18.56;32.85
33280;BME280;20403;43.114;12.434;2023-03-05T13:06:39;98600.00;;;18.40;32.27
33280;BME280;20403;43.114;12.434;2023-03-05T13:09:36;98599.16;;;18.45;33.73
33280;BME280;20403;43.114;12.434;2023-03-05T13:12:10;98596.91;;;18.14;33.34
33280;BME280;20403;43.114;12.434;2023-03-05T13:14:40;98592.63;;;18.18;34.13
33280;BME280;20403;43.114;12.434;2023-03-05T13:19:51;98594.00;;;18.35;34.58
33280;BME280;20403;43.114;12.434;2023-03-05T13:22:16;98594.28;;;18.33;35.17
33280;BME280;20403;43.114;12.434;2023-03-05T13:24:42;98597.19;;;18.13;34.88
33280;BME280;20403;43.114;12.434;2023-03-05T13:27:40;98596.19;;;18.09;35.45
33280;BME280;20403;43.114;12.434;2023-03-05T13:30:22;98594.91;;;18.06;35.84
33280;BME280;20403;43.114;12.434;2023-03-05T13:32:50;98594.63;;;17.83;34.96
33280;BME280;20403;43.114;12.434;2023-03-05T13:35:16;98584.13;;;18.02;35.54
33280;BME280;20403;43.114;12.434;2023-03-05T13:37:43;98586.03;;;17.97;35.86
33280;BME280;20403;43.114;12.434;2023-03-05T13:40:22;98585.34;;;18.10;35.94
33280;BME280;20403;43.114;12.434;2023-03-05T13:42:50;98577.72;;;18.09;37.14
33280;BME280;20403;43.114;12.434;2023-03-05T13:47:58;98580.91;;;17.57;37.96
33280;BME280;20403;43.114;12.434;2023-03-05T13:50:27;98576.59;;;17.67;40.36
33280;BME280;20403;43.114;12.434;2023-03-05T13:52:53;98574.03;;;17.85;41.05
33280;BME280;20403;43.114;12.434;2023-03-05T13:55:19;98570.84;;;17.89;40.63
33280;BME280;20403;43.114;12.434;2023-03-05T13:57:46;98567.78;;;17.81;41.53
33280;BME280;20403;43.114;12.434;2023-03-05T14:03:07;98563.41;;;17.67;44.41
33280;BME280;20403;43.114;12.434;2023-03-05T14:05:33;98565.44;;;17.75;44.56
33280;BME280;20403;43.114;12.434;2023-03-05T14:07:59;98559.44;;;17.69;45.14
33280;BME280;20403;43.114;12.434;2023-03-05T14:10:28;98555.19;;;17.49;44.49
33280;BME280;20403;43.114;12.434;2023-03-05T14:12:55;98560.56;;;17.63;44.21
33280;BME280;20403;43.114;12.434;2023-03-05T14:15:27;98552.47;;;17.54;46.94
33280;BME280;20403;43.114;12.434;2023-03-05T14:20:33;98558.31;;;17.51;45.70
33280;BME280;20403;43.114;12.434;2023-03-05T14:23:00;98562.69;;;17.61;46.94